My Profile
  1. Member Settings
  2. My Devices
  3. Sign Out
        More Settings
      Elev 614 ft, 39.320 °N 88.899 °W

      Lakewood, IL

      Summary

      Temperature (°F)MaxAverageMin
      Max Temperature9684.4774
      Avg Temperature86.5273.9563.86
      Min Temperature7464.5351
      Precipitation (in)MaxAverageMinSum
      Precipitation1.050.1103.59
      Dew Point (°F)MaxAverageMin
      Dew Point75.1465.9152.69
      Wind (mph)MaxAverageMin
      Wind2311.470
      Gust Wind4018.3810
      Sea Level Pressure (in)MaxAverageMin
      Sea Level Pressure29.6129.4429.26

      Daily Observations

      DateTemp High/LowDew Pt High/LowHumidityWindMax WindWind GustPressurePrecip.Condition
      8/1/2024 85 °F / 73 °F 78 °F / 71 °F 91 % 13 mph - 29.35 in 1.05 in
      8/2/2024 83 °F / 69 °F 74 °F / 68 °F 83 % 16 mph - 29.34 in 0 in
      8/3/2024 91 °F / 69 °F 74 °F / 66 °F 78 % 13 mph - 29.36 in 0 in
      8/4/2024 90 °F / 69 °F 76 °F / 69 °F 81 % 9 mph - 29.4 in 0 in
      8/5/2024 92 °F / 70 °F 76 °F / 70 °F 79 % 6 mph - 29.42 in 0 in
      8/6/2024 93 °F / 69 °F 76 °F / 66 °F 80 % 18 mph - 29.32 in 0 in
      8/7/2024 73 °F / 67 °F 69 °F / 65 °F 89 % 12 mph - 29.3 in 0 in
      8/8/2024 83 °F / 65 °F 67 °F / 62 °F 76 % 12 mph - 29.31 in 0 in
      8/9/2024 77 °F / 60 °F 68 °F / 54 °F 69 % 14 mph - 29.43 in 0 in
      8/10/2024 79 °F / 54 °F 58 °F / 51 °F 71 % 12 mph - 29.55 in 0 in
      8/11/2024 81 °F / 57 °F 62 °F / 52 °F 71 % 16 mph - 29.53 in 0 in
      8/12/2024 77 °F / 58 °F 67 °F / 57 °F 82 % 8 mph - 29.51 in 0 in
      8/13/2024 81 °F / 62 °F 67 °F / 61 °F 81 % 7 mph - 29.51 in 0 in
      8/14/2024 82 °F / 60 °F 70 °F / 60 °F 81 % 7 mph - 29.49 in 0 in
      8/15/2024 84 °F / 65 °F 77 °F / 64 °F 90 % 12 mph - 29.36 in 0.72 in
      8/16/2024 88 °F / 69 °F 74 °F / 68 °F 81 % 13 mph - 29.28 in 0 in
      8/17/2024 86 °F / 66 °F 72 °F / 65 °F 79 % 23 mph - 29.27 in 0.76 in
      8/18/2024 83 °F / 66 °F 69 °F / 64 °F 81 % 17 mph - 29.33 in 0 in
      8/19/2024 78 °F / 60 °F 65 °F / 55 °F 76 % 14 mph - 29.47 in 0 in
      8/20/2024 75 °F / 55 °F 57 °F / 51 °F 72 % 9 mph - 29.57 in 0.02 in
      8/21/2024 75 °F / 53 °F 57 °F / 50 °F 72 % 9 mph - 29.62 in 0 in
      8/22/2024 78 °F / 51 °F 59 °F / 50 °F 70 % 10 mph - 29.61 in 0 in
      8/23/2024 85 °F / 53 °F 70 °F / 51 °F 77 % 9 mph - 29.58 in 0 in
      8/24/2024 89 °F / 64 °F 70 °F / 63 °F 77 % 10 mph - 29.55 in 0 in
      8/25/2024 91 °F / 65 °F 71 °F / 62 °F 71 % 12 mph - 29.56 in 0 in
      8/26/2024 92 °F / 65 °F 72 °F / 64 °F 69 % 9 mph - 29.53 in 0 in
      8/27/2024 96 °F / 77 °F 76 °F / 72 °F 65 % 10 mph - 29.41 in 0 in
      8/28/2024 89 °F / 69 °F 76 °F / 67 °F 81 % 14 mph - 29.47 in 0.62 in
      8/29/2024 93 °F / 70 °F 78 °F / 69 °F 80 % 5 mph - 29.48 in 0 in
      8/30/2024 94 °F / 69 °F 75 °F / 68 °F 78 % 13 mph - 29.43 in 0 in
      8/31/2024 83 °F / 66 °F 72 °F / 65 °F 85 % 14 mph - 29.44 in 0.42 in
      essentialaccessibility.com
      We recognize our responsibility to use data and technology for good. We may use or share your data with our data vendors. Take control of your data.
      Glossary